Time;durP1;ratioP1;P1;durP2;ratioP2;P2;SDS_P1;SDS_P2;PMS_P1;PMS_P2;Temp;Humidity;BMP_temperature;BMP_pressure;BME280_temperature;BME280_humidity;BME280_pressure;Samples;Min_cycle;Max_cycle;Signal;HPM_P1;HPM_P2
2021/12/12 00:02:07;;;;;;;21.10;14.03;;;7.60;99.90;;;;;;5073048;28;20688;-65
2021/12/12 00:04:36;;;;;;;22.43;14.17;;;7.50;99.90;;;;;;5072802;28;20196;-64
2021/12/12 00:07:07;;;;;;;20.87;13.57;;;7.50;99.90;;;;;;5071152;28;20224;-65
2021/12/12 00:09:37;;;;;;;23.17;14.47;;;7.50;99.90;;;;;;5073533;28;20640;-64
2021/12/12 00:12:07;;;;;;;18.03;12.67;;;7.50;99.90;;;;;;5073395;28;20201;-64
2021/12/12 00:14:36;;;;;;;21.83;13.93;;;7.50;99.90;;;;;;5073337;28;20214;-65
2021/12/12 00:17:09;;;;;;;21.10;13.80;;;7.60;99.90;;;;;;5072876;28;20205;-64
2021/12/12 00:19:36;;;;;;;25.17;14.87;;;7.60;99.90;;;;;;5072569;28;20189;-65
2021/12/12 00:22:06;;;;;;;23.60;15.47;;;7.60;99.90;;;;;;5073018;28;20216;-63
2021/12/12 00:24:33;;;;;;;21.37;14.93;;;7.50;99.90;;;;;;5073267;28;20197;-63
2021/12/12 00:27:00;;;;;;;21.73;14.47;;;7.50;99.90;;;;;;5072982;28;20714;-64
2021/12/12 00:29:28;;;;;;;22.77;14.73;;;7.50;99.90;;;;;;5073135;28;20212;-64
2021/12/12 00:31:59;;;;;;;21.23;13.53;;;7.50;99.90;;;;;;5072421;28;20204;-64
2021/12/12 00:34:30;;;;;;;23.30;14.57;;;7.50;99.90;;;;;;5071911;28;20199;-65
2021/12/12 00:36:57;;;;;;;24.07;14.47;;;7.60;99.90;;;;;;5073001;28;20185;-63
2021/12/12 00:39:27;;;;;;;22.90;16.03;;;7.50;99.90;;;;;;5072190;28;20204;-64
2021/12/12 00:41:57;;;;;;;24.47;16.13;;;7.60;99.90;;;;;;5072791;28;20208;-65
2021/12/12 00:44:26;;;;;;;25.43;16.47;;;7.60;99.90;;;;;;5070650;28;20220;-65
2021/12/12 00:46:54;;;;;;;27.03;18.23;;;7.60;99.90;;;;;;5071453;28;20217;-64
2021/12/12 00:49:22;;;;;;;29.80;19.50;;;7.60;99.90;;;;;;5072156;28;20205;-64
2021/12/12 00:51:51;;;;;;;27.83;18.20;;;7.60;99.90;;;;;;5072148;28;20236;-64
2021/12/12 00:54:19;;;;;;;26.93;17.80;;;7.50;99.90;;;;;;5072166;28;20231;-63
2021/12/12 00:56:46;;;;;;;26.53;17.07;;;7.60;99.90;;;;;;5072176;28;20216;-64
2021/12/12 00:59:13;;;;;;;31.83;18.90;;;7.60;99.90;;;;;;5072104;28;20208;-64
2021/12/12 01:01:45;;;;;;;31.70;19.47;;;7.60;99.90;;;;;;5072257;28;20205;-63
2021/12/12 01:04:16;;;;;;;48.50;26.97;;;7.60;99.90;;;;;;5071629;28;20656;-65
2021/12/12 01:06:44;;;;;;;51.40;27.17;;;7.60;99.90;;;;;;5071298;28;20676;-65
2021/12/12 01:09:16;;;;;;;41.23;23.37;;;7.50;99.90;;;;;;5071492;28;20538;-65
2021/12/12 01:11:53;;;;;;;32.03;19.80;;;7.50;99.90;;;;;;5071566;28;20282;-65
2021/12/12 01:14:25;;;;;;;26.73;17.83;;;7.50;99.90;;;;;;5069787;28;20203;-65
2021/12/12 01:16:58;;;;;;;23.47;15.33;;;7.50;99.90;;;;;;5071429;28;20188;-64
2021/12/12 01:19:28;;;;;;;21.30;15.03;;;7.50;99.90;;;;;;5071722;28;20196;-64
2021/12/12 01:21:58;;;;;;;20.93;14.67;;;7.50;99.90;;;;;;5073708;28;20649;-68
2021/12/12 01:24:29;;;;;;;25.57;17.30;;;7.50;99.90;;;;;;5062249;28;20205;-64
2021/12/12 01:26:59;;;;;;;24.47;16.03;;;7.50;99.90;;;;;;5055275;28;20697;-65
2021/12/12 01:29:26;;;;;;;25.10;16.07;;;7.50;99.90;;;;;;5072289;28;20254;-65
2021/12/12 01:31:54;;;;;;;35.33;21.93;;;7.50;99.90;;;;;;5071998;28;20208;-63
2021/12/12 01:34:24;;;;;;;52.07;31.03;;;7.60;99.90;;;;;;5071445;28;20201;-66
2021/12/12 01:37:07;;;;;;;63.97;37.93;;;7.60;99.90;;;;;;5071952;28;20193;-65
2021/12/12 01:39:40;;;;;;;57.73;35.70;;;7.60;99.90;;;;;;5072183;28;20648;-65
2021/12/12 01:42:10;;;;;;;44.03;26.03;;;7.60;99.90;;;;;;5064260;28;20203;-63
2021/12/12 01:44:42;;;;;;;37.30;22.30;;;7.70;99.90;;;;;;5070450;28;20212;-65
2021/12/12 01:47:13;;;;;;;36.40;19.85;;;7.70;99.90;;;;;;5071117;28;20554;-64
2021/12/12 01:49:44;;;;;;;34.27;18.60;;;7.70;99.90;;;;;;5075346;28;20196;-64
2021/12/12 01:52:14;;;;;;;32.10;18.10;;;7.80;99.90;;;;;;5075211;28;20245;-64
2021/12/12 01:54:46;;;;;;;31.17;17.37;;;7.80;99.90;;;;;;5075282;28;20606;-64
2021/12/12 01:57:16;;;;;;;27.17;17.03;;;7.70;99.90;;;;;;5075640;28;20220;-66
2021/12/12 01:59:44;;;;;;;28.30;16.00;;;7.80;99.90;;;;;;5074776;28;20211;-64
2021/12/12 02:02:14;;;;;;;27.97;16.97;;;7.80;99.90;;;;;;5075486;28;20208;-66
2021/12/12 02:04:44;;;;;;;28.67;16.87;;;7.80;99.90;;;;;;5075668;28;20197;-64
2021/12/12 02:07:15;;;;;;;27.43;16.43;;;7.80;99.90;;;;;;5075043;28;20212;-64
2021/12/12 02:09:44;;;;;;;28.03;16.40;;;7.80;99.90;;;;;;5075137;28;20199;-64
2021/12/12 02:12:12;;;;;;;28.50;15.97;;;7.80;99.90;;;;;;5074976;28;20700;-64
2021/12/12 02:14:42;;;;;;;29.70;17.47;;;7.80;99.90;;;;;;5075658;28;20212;-63
2021/12/12 02:17:15;;;;;;;32.00;17.33;;;7.80;99.90;;;;;;5055438;28;20209;-65
2021/12/12 02:19:55;;;;;;;29.00;16.27;;;7.80;99.90;;;;;;5057955;28;20275;-63
2021/12/12 02:22:39;;;;;;;28.10;16.47;;;7.80;99.90;;;;;;5075391;28;20193;-64
2021/12/12 02:36:23;;;;;;;29.53;16.53;;;7.80;99.90;;;;;;5032721;28;20218;-64
2021/12/12 02:38:54;;;;;;;29.70;16.37;;;7.80;99.90;;;;;;5049716;28;20227;-65
2021/12/12 02:41:23;;;;;;;28.70;15.57;;;7.80;99.90;;;;;;5070661;28;20211;-66
2021/12/12 02:43:57;;;;;;;24.57;15.60;;;7.80;99.90;;;;;;5074216;28;20227;-64
2021/12/12 02:46:28;;;;;;;28.43;15.70;;;7.80;99.90;;;;;;5073926;28;20193;-64
2021/12/12 02:49:03;;;;;;;26.63;16.03;;;7.80;99.90;;;;;;5073126;28;20232;-64
2021/12/12 02:51:30;;;;;;;27.93;16.20;;;7.80;99.90;;;;;;5073988;28;20228;-63
2021/12/12 02:53:59;;;;;;;27.33;16.13;;;7.80;99.90;;;;;;5073994;28;20205;-65
2021/12/12 02:56:29;;;;;;;26.60;16.03;;;7.80;99.90;;;;;;5074634;28;20204;-64
2021/12/12 02:58:56;;;;;;;29.23;17.03;;;7.80;99.90;;;;;;5073868;28;20560;-65
2021/12/12 03:01:31;;;;;;;25.80;15.90;;;7.80;99.90;;;;;;5074347;28;20212;-63
2021/12/12 03:03:58;;;;;;;26.63;15.80;;;7.80;99.90;;;;;;5074573;28;20196;-64
2021/12/12 03:06:30;;;;;;;28.37;16.77;;;7.80;99.90;;;;;;5074991;28;20223;-65
2021/12/12 03:09:08;;;;;;;24.23;15.77;;;7.80;99.90;;;;;;5073666;28;20204;-64
2021/12/12 03:11:35;;;;;;;23.70;15.20;;;7.70;99.90;;;;;;5074772;28;20225;-62
2021/12/12 03:14:02;;;;;;;27.30;16.17;;;7.80;99.90;;;;;;5074280;28;20227;-65
2021/12/12 03:16:30;;;;;;;29.47;16.83;;;7.80;99.90;;;;;;5073867;28;20192;-64
2021/12/12 03:18:57;;;;;;;25.77;16.03;;;7.80;99.90;;;;;;5073382;28;20193;-63
2021/12/12 03:21:30;;;;;;;26.00;15.87;;;7.80;99.90;;;;;;5074038;28;20197;-63
2021/12/12 03:24:02;;;;;;;29.10;15.70;;;7.70;99.90;;;;;;5073221;28;20219;-64
2021/12/12 03:26:30;;;;;;;24.67;15.97;;;7.70;99.90;;;;;;5073772;28;20197;-64
2021/12/12 03:28:59;;;;;;;28.57;16.93;;;7.70;99.90;;;;;;5073421;28;20700;-65
2021/12/12 03:31:29;;;;;;;32.03;17.63;;;7.70;99.90;;;;;;5073925;28;20703;-65
2021/12/12 03:33:56;;;;;;;31.53;18.77;;;7.80;99.90;;;;;;5073719;28;20220;-63
2021/12/12 03:36:23;;;;;;;34.47;17.80;;;7.80;99.90;;;;;;5073925;28;20300;-65
2021/12/12 03:38:54;;;;;;;35.63;18.13;;;7.80;99.90;;;;;;5073454;28;20216;-63
2021/12/12 03:41:26;;;;;;;37.57;18.20;;;7.80;99.90;;;;;;5073914;28;20791;-65
2021/12/12 03:43:55;;;;;;;35.70;19.57;;;7.80;99.90;;;;;;5073292;28;20192;-64
2021/12/12 03:46:22;;;;;;;32.43;17.30;;;7.80;99.90;;;;;;5073795;28;20683;-63
2021/12/12 03:48:50;;;;;;;43.77;18.63;;;7.80;99.90;;;;;;5073162;28;20243;-63
2021/12/12 03:51:19;;;;;;;38.20;17.83;;;7.70;99.90;;;;;;5073403;28;20243;-65
2021/12/12 03:53:47;;;;;;;41.00;18.90;;;7.80;99.90;;;;;;5073459;28;20673;-65
2021/12/12 03:56:15;;;;;;;36.40;17.60;;;7.80;99.90;;;;;;5073549;28;20212;-63
2021/12/12 03:58:45;;;;;;;44.50;18.37;;;7.80;99.90;;;;;;5072758;28;20197;-64
2021/12/12 04:01:17;;;;;;;45.33;20.03;;;7.80;99.90;;;;;;5073535;28;20200;-66
2021/12/12 04:03:45;;;;;;;57.90;22.03;;;7.80;99.90;;;;;;5073038;28;20199;-65
2021/12/12 04:06:15;;;;;;;48.63;19.93;;;7.80;99.90;;;;;;5073204;28;20200;-65
2021/12/12 04:08:44;;;;;;;41.40;18.77;;;7.70;99.90;;;;;;5072602;28;20242;-65
2021/12/12 04:11:15;;;;;;;48.00;20.80;;;7.70;99.90;;;;;;5072974;28;20205;-64
2021/12/12 04:13:46;;;;;;;47.73;20.47;;;7.70;99.90;;;;;;5072819;28;20185;-65
2021/12/12 04:16:14;;;;;;;44.37;18.63;;;7.70;99.90;;;;;;5072979;28;20280;-64
2021/12/12 04:18:41;;;;;;;46.80;20.10;;;7.70;99.90;;;;;;5072857;28;20554;-65
2021/12/12 04:21:08;;;;;;;51.60;19.53;;;7.70;99.90;;;;;;5072556;28;20207;-63
2021/12/12 04:23:35;;;;;;;46.27;18.70;;;7.60;99.90;;;;;;5072785;28;20649;-64
2021/12/12 04:26:16;;;;;;;50.17;20.17;;;7.60;99.90;;;;;;5072932;28;20201;-65
2021/12/12 04:28:44;;;;;;;51.30;20.77;;;7.60;99.90;;;;;;5072479;28;20583;-64
2021/12/12 04:31:12;;;;;;;44.53;19.30;;;7.60;99.90;;;;;;5072398;28;20193;-64
2021/12/12 04:33:38;;;;;;;51.53;20.97;;;7.60;99.90;;;;;;5072601;28;20200;-64
2021/12/12 04:36:06;;;;;;;46.67;18.20;;;7.60;99.90;;;;;;5072524;28;20209;-64
2021/12/12 04:38:33;;;;;;;55.37;19.33;;;7.50;99.90;;;;;;5072394;28;20243;-65
2021/12/12 04:41:00;;;;;;;49.97;17.43;;;7.50;99.90;;;;;;5072210;28;20219;-65
2021/12/12 04:43:26;;;;;;;50.00;17.77;;;7.40;99.90;;;;;;5072333;28;20205;-63
2021/12/12 04:46:07;;;;;;;68.23;19.77;;;7.40;99.90;;;;;;5072476;28;20212;-64
2021/12/12 04:51:34;;;;;;;81.17;21.77;;;7.30;99.90;;;;;;5072087;28;20239;-64
2021/12/12 04:54:08;;;;;;;105.17;22.33;;;7.30;99.90;;;;;;5072303;28;20225;-64
2021/12/12 04:56:46;;;;;;;60.87;20.13;;;7.30;99.90;;;;;;5071924;28;20606;-64
2021/12/12 04:59:18;;;;;;;92.07;20.73;;;7.30;99.90;;;;;;5072347;28;20184;-65
2021/12/12 05:01:57;;;;;;;62.50;20.53;;;7.30;99.90;;;;;;5071982;28;20257;-64
2021/12/12 05:04:30;;;;;;;84.50;21.87;;;7.30;99.90;;;;;;5072435;28;20626;-63
2021/12/12 05:07:02;;;;;;;72.03;20.43;;;7.30;99.90;;;;;;5071790;28;20200;-63
2021/12/12 05:09:33;;;;;;;71.70;21.60;;;7.30;99.90;;;;;;5071867;28;20208;-64
2021/12/12 05:12:04;;;;;;;111.23;24.97;;;7.30;99.90;;;;;;5071894;28;20191;-64
2021/12/12 05:14:36;;;;;;;74.40;22.23;;;7.30;99.90;;;;;;5071758;28;20574;-64
2021/12/12 05:17:10;;;;;;;82.70;21.63;;;7.40;99.90;;;;;;5071786;28;20267;-64
2021/12/12 05:19:39;;;;;;;89.30;24.30;;;7.40;99.90;;;;;;5071867;28;20185;-65
2021/12/12 05:22:11;;;;;;;62.07;21.93;;;7.40;99.90;;;;;;5071987;28;20208;-64
2021/12/12 05:24:40;;;;;;;88.30;21.90;;;7.30;99.90;;;;;;5071517;28;20193;-64
2021/12/12 05:27:10;;;;;;;160.37;26.20;;;7.30;99.90;;;;;;5051894;28;20658;-64
2021/12/12 05:29:40;;;;;;;95.03;23.50;;;7.30;99.90;;;;;;5051380;28;20216;-64
2021/12/12 05:32:10;;;;;;;162.97;29.27;;;7.30;99.90;;;;;;5051958;28;20563;-64
2021/12/12 05:34:41;;;;;;;98.53;23.80;;;7.30;99.90;;;;;;5051793;28;20742;-64
2021/12/12 05:37:11;;;;;;;126.77;26.10;;;7.30;99.90;;;;;;5069478;28;20556;-65
2021/12/12 05:39:39;;;;;;;143.40;26.80;;;7.20;99.90;;;;;;5071268;28;20205;-64
2021/12/12 05:42:06;;;;;;;105.27;25.30;;;7.20;99.90;;;;;;5071762;28;20216;-63
2021/12/12 05:44:33;;;;;;;136.63;28.43;;;7.20;99.90;;;;;;5071595;28;20204;-63
2021/12/12 05:47:04;;;;;;;125.97;27.27;;;7.10;99.90;;;;;;5071684;28;20767;-64
2021/12/12 05:49:33;;;;;;;180.87;26.20;;;7.10;99.90;;;;;;5071403;28;20208;-64
2021/12/12 05:52:00;;;;;;;192.37;30.13;;;7.10;99.90;;;;;;5071488;28;20244;-64
2021/12/12 05:54:28;;;;;;;125.77;26.23;;;7.10;99.90;;;;;;5070785;28;20217;-64
2021/12/12 05:56:58;;;;;;;109.37;24.83;;;7.10;99.90;;;;;;5071629;28;20503;-64
2021/12/12 05:59:25;;;;;;;120.63;25.67;;;7.10;99.90;;;;;;5071253;28;20560;-64
2021/12/12 06:01:52;;;;;;;158.07;27.17;;;7.10;99.90;;;;;;5070924;28;20216;-64
2021/12/12 06:04:19;;;;;;;149.97;27.00;;;7.10;99.90;;;;;;5071139;28;20201;-65
2021/12/12 06:06:48;;;;;;;159.67;28.13;;;7.10;99.90;;;;;;5071168;28;20200;-65
2021/12/12 06:09:17;;;;;;;177.03;28.67;;;7.10;99.90;;;;;;5071137;28;20236;-64
2021/12/12 06:11:47;;;;;;;133.63;27.53;;;7.10;99.90;;;;;;5071605;28;20205;-64
2021/12/12 06:14:14;;;;;;;145.80;26.80;;;7.10;99.90;;;;;;5071591;28;20209;-65
2021/12/12 06:16:42;;;;;;;124.43;27.73;;;7.10;99.90;;;;;;5071356;28;20668;-64
2021/12/12 06:19:13;;;;;;;149.23;28.57;;;7.10;99.90;;;;;;5070895;28;20197;-63
2021/12/12 06:21:41;;;;;;;202.90;29.97;;;7.10;99.90;;;;;;5071066;28;20190;-66
2021/12/12 06:24:09;;;;;;;278.07;34.17;;;7.00;99.90;;;;;;5071433;28;20662;-63
2021/12/12 06:26:38;;;;;;;235.73;30.80;;;7.00;99.90;;;;;;5070882;28;20205;-65
2021/12/12 06:29:06;;;;;;;213.37;31.17;;;6.90;99.90;;;;;;5070773;28;20224;-64
2021/12/12 06:31:36;;;;;;;241.07;31.07;;;6.80;99.90;;;;;;5070940;28;20209;-65
2021/12/12 06:34:03;;;;;;;187.33;29.17;;;6.80;99.90;;;;;;5074577;28;20220;-64
2021/12/12 06:36:30;;;;;;;198.93;29.20;;;6.80;99.90;;;;;;5074748;28;20208;-64
2021/12/12 06:38:57;;;;;;;258.13;30.37;;;6.70;99.90;;;;;;5074967;28;20232;-64
2021/12/12 06:41:26;;;;;;;339.40;34.97;;;6.70;99.90;;;;;;5074686;28;20204;-63
2021/12/12 06:43:56;;;;;;;228.17;31.20;;;6.60;99.90;;;;;;5074009;28;20273;-63
2021/12/12 06:46:25;;;;;;;173.33;28.53;;;6.60;99.90;;;;;;5074397;28;20284;-64
2021/12/12 06:48:53;;;;;;;237.60;32.83;;;6.60;99.90;;;;;;5074664;28;20244;-65
2021/12/12 06:51:20;;;;;;;220.03;28.83;;;6.50;99.90;;;;;;5074364;28;20244;-64
2021/12/12 06:53:49;;;;;;;260.87;31.40;;;6.40;99.90;;;;;;5074997;28;20220;-65
2021/12/12 06:56:17;;;;;;;268.20;34.37;;;6.40;99.90;;;;;;5074441;28;20201;-65
2021/12/12 06:58:46;;;;;;;219.80;28.60;;;6.30;99.90;;;;;;5074769;28;20216;-65
2021/12/12 07:01:17;;;;;;;145.90;25.03;;;6.20;99.90;;;;;;5074164;28;20204;-65
2021/12/12 07:03:45;;;;;;;247.77;32.57;;;6.20;99.90;;;;;;5074598;28;20546;-63
2021/12/12 07:06:13;;;;;;;191.30;28.73;;;6.20;99.90;;;;;;5074566;28;20220;-65
2021/12/12 07:08:40;;;;;;;144.63;24.30;;;6.20;99.90;;;;;;5074606;28;20229;-64
2021/12/12 07:11:07;;;;;;;164.80;26.23;;;6.20;99.90;;;;;;5074346;28;20216;-66
2021/12/12 07:13:34;;;;;;;121.67;24.07;;;6.10;99.90;;;;;;5073669;28;20211;-66
2021/12/12 07:16:05;;;;;;;189.90;26.63;;;6.20;99.90;;;;;;5074122;28;20219;-64
2021/12/12 07:18:35;;;;;;;128.70;23.70;;;6.20;99.90;;;;;;5073838;28;20203;-65
2021/12/12 07:21:06;;;;;;;216.47;26.37;;;6.20;99.90;;;;;;5074288;28;20211;-64
2021/12/12 07:23:35;;;;;;;134.73;24.67;;;6.10;99.90;;;;;;5074047;28;20193;-64
2021/12/12 07:26:04;;;;;;;161.57;26.20;;;6.10;99.90;;;;;;5074227;28;20213;-64
2021/12/12 07:28:32;;;;;;;139.43;23.73;;;6.00;99.90;;;;;;5073704;28;20208;-64
2021/12/12 07:31:02;;;;;;;93.10;19.87;;;6.00;99.90;;;;;;5073771;28;20212;-66
2021/12/12 07:33:30;;;;;;;129.47;23.80;;;6.00;99.90;;;;;;5073736;28;20633;-68
2021/12/12 07:35:59;;;;;;;141.93;23.67;;;6.00;99.90;;;;;;5073851;28;20211;-64
2021/12/12 07:38:28;;;;;;;110.80;22.90;;;5.90;99.90;;;;;;5073859;28;20204;-64
2021/12/12 07:40:55;;;;;;;134.53;25.10;;;5.90;99.90;;;;;;5073821;28;20205;-65
2021/12/12 07:43:23;;;;;;;88.37;21.87;;;5.90;99.90;;;;;;5072627;28;20201;-69
2021/12/12 07:45:51;;;;;;;97.67;22.23;;;5.90;99.90;;;;;;5072954;28;20204;-65
2021/12/12 07:48:19;;;;;;;96.20;22.63;;;5.80;99.90;;;;;;5073840;28;20208;-65
2021/12/12 07:50:47;;;;;;;61.63;19.17;;;5.80;99.90;;;;;;5072754;28;20224;-64
2021/12/12 07:53:14;;;;;;;79.63;20.37;;;5.80;99.90;;;;;;5073290;28;20219;-67
2021/12/12 07:55:41;;;;;;;82.80;19.63;;;5.80;99.90;;;;;;5076484;28;20673;-65
2021/12/12 07:58:11;;;;;;;72.93;20.37;;;5.70;99.90;;;;;;5072993;28;20199;-66
2021/12/12 08:00:40;;;;;;;73.77;21.43;;;5.70;99.90;;;;;;5072987;28;20201;-64
2021/12/12 08:03:08;;;;;;;161.93;24.47;;;5.70;99.90;;;;;;5068491;28;20230;-65
2021/12/12 08:05:36;;;;;;;182.03;22.60;;;5.70;99.90;;;;;;5053099;28;20292;-64
2021/12/12 08:08:07;;;;;;;108.97;19.40;;;5.60;99.90;;;;;;5063747;28;20196;-66
2021/12/12 08:10:35;;;;;;;144.17;21.50;;;5.60;99.90;;;;;;5072939;28;20205;-65
2021/12/12 08:13:02;;;;;;;151.73;21.03;;;5.60;99.90;;;;;;5072911;28;20201;-64
2021/12/12 08:15:29;;;;;;;108.03;19.73;;;5.50;99.90;;;;;;5072439;28;20211;-65
2021/12/12 08:17:58;;;;;;;134.97;21.43;;;5.50;99.90;;;;;;5072806;28;20257;-65
2021/12/12 08:20:28;;;;;;;179.83;24.27;;;5.40;99.90;;;;;;5065726;28;20209;-66
2021/12/12 08:22:57;;;;;;;177.90;20.97;;;5.50;99.90;;;;;;5052901;28;20654;-64
2021/12/12 08:25:25;;;;;;;151.27;21.77;;;5.40;99.90;;;;;;5055222;28;20212;-64
2021/12/12 08:27:53;;;;;;;150.20;20.60;;;5.40;99.90;;;;;;5072384;28;20247;-66
2021/12/12 08:30:21;;;;;;;90.03;17.40;;;5.30;99.90;;;;;;5071666;28;20228;-65
2021/12/12 08:32:51;;;;;;;139.67;19.13;;;5.30;99.90;;;;;;5072757;28;20621;-65
2021/12/12 08:35:20;;;;;;;160.87;21.93;;;5.30;99.90;;;;;;5072043;28;20208;-64
2021/12/12 08:37:49;;;;;;;200.43;23.33;;;5.30;99.90;;;;;;5063497;28;20217;-64
2021/12/12 08:40:19;;;;;;;107.07;18.77;;;5.30;99.90;;;;;;5072472;28;20196;-65
2021/12/12 08:42:46;;;;;;;235.97;25.77;;;5.30;99.90;;;;;;5072634;28;20263;-66
2021/12/12 08:45:17;;;;;;;147.03;22.07;;;5.30;99.90;;;;;;5072536;28;20227;-66
2021/12/12 08:47:44;;;;;;;206.43;23.77;;;5.30;99.90;;;;;;5072000;28;20220;-65
2021/12/12 08:50:15;;;;;;;155.80;22.37;;;5.20;99.90;;;;;;5072080;28;20221;-67
2021/12/12 08:52:44;;;;;;;141.73;20.30;;;5.20;99.90;;;;;;5072213;28;20189;-64
2021/12/12 08:55:18;;;;;;;199.40;24.40;;;5.30;99.90;;;;;;5058659;28;20209;-65
2021/12/12 08:57:58;;;;;;;151.33;21.90;;;5.30;99.90;;;;;;5052829;28;20228;-67
2021/12/12 09:00:27;;;;;;;236.93;23.40;;;5.30;99.90;;;;;;5071449;28;20213;-65
2021/12/12 09:02:56;;;;;;;139.03;19.53;;;5.30;99.90;;;;;;5071025;28;20221;-65
2021/12/12 09:05:28;;;;;;;77.20;19.13;;;5.30;99.90;;;;;;5075735;28;20254;-66
2021/12/12 09:08:01;;;;;;;131.70;19.83;;;5.40;99.90;;;;;;5071869;28;20192;-64
2021/12/12 09:10:34;;;;;;;142.43;20.53;;;5.30;99.90;;;;;;5071949;28;20213;-64
2021/12/12 09:13:08;;;;;;;110.70;18.53;;;5.30;99.90;;;;;;5071960;28;20189;-66
2021/12/12 09:15:40;;;;;;;149.33;20.30;;;5.20;99.90;;;;;;5053666;28;20212;-63
2021/12/12 09:18:09;;;;;;;160.63;21.77;;;5.20;99.90;;;;;;5054354;28;20184;-64
2021/12/12 09:20:47;;;;;;;93.10;17.90;;;5.20;99.90;;;;;;5072092;28;20200;-65
2021/12/12 09:23:19;;;;;;;139.07;22.17;;;5.10;99.90;;;;;;5071583;28;20200;-65
2021/12/12 09:25:52;;;;;;;130.67;19.87;;;5.10;99.90;;;;;;5071804;28;20273;-67
2021/12/12 09:28:30;;;;;;;130.50;18.40;;;5.10;99.90;;;;;;5071406;28;20307;-65
2021/12/12 09:30:59;;;;;;;147.60;21.27;;;5.10;99.90;;;;;;5071378;28;20212;-65
2021/12/12 09:33:32;;;;;;;107.43;18.93;;;5.10;99.90;;;;;;5071885;28;20539;-65
2021/12/12 09:36:03;;;;;;;63.80;19.03;;;5.10;99.90;;;;;;5071757;28;20191;-66
2021/12/12 09:38:33;;;;;;;81.63;19.63;;;5.10;99.90;;;;;;5071397;28;20200;-68
2021/12/12 09:41:24;;;;;;;86.97;20.87;;;5.10;99.90;;;;;;5070476;28;20205;-65
2021/12/12 09:44:19;;;;;;;58.10;21.67;;;5.10;99.90;;;;;;5071498;28;20644;-64
2021/12/12 09:47:11;;;;;;;45.40;19.23;;;5.10;99.90;;;;;;5071959;28;20539;-67
2021/12/12 09:52:56;;;;;;;45.73;19.07;;;5.20;99.90;;;;;;5071720;28;20666;-65
2021/12/12 09:55:28;;;;;;;40.13;16.67;;;5.30;99.90;;;;;;5071217;28;20201;-65
2021/12/12 09:57:59;;;;;;;59.03;20.93;;;5.30;99.90;;;;;;5071454;28;20208;-67
2021/12/12 10:00:32;;;;;;;76.27;20.07;;;5.40;99.90;;;;;;5071663;28;20185;-67
2021/12/12 10:03:17;;;;;;;99.77;20.97;;;5.40;99.90;;;;;;5071707;28;20189;-67
2021/12/12 10:05:57;;;;;;;41.40;17.63;;;5.30;99.90;;;;;;5070136;28;20661;-67
2021/12/12 10:08:30;;;;;;;48.10;20.67;;;5.30;99.90;;;;;;5074304;28;20192;-66
2021/12/12 10:11:01;;;;;;;48.40;20.97;;;5.20;99.90;;;;;;5075171;28;20684;-66
2021/12/12 10:13:33;;;;;;;54.77;22.53;;;5.20;99.90;;;;;;5075389;28;20197;-65
2021/12/12 10:16:07;;;;;;;41.60;17.67;;;5.20;99.90;;;;;;5074927;28;20193;-65
2021/12/12 10:18:44;;;;;;;41.27;18.20;;;5.20;99.90;;;;;;5075282;28;20656;-64
2021/12/12 10:21:15;;;;;;;42.20;17.53;;;5.20;99.90;;;;;;5075388;28;20218;-66
2021/12/12 10:23:57;;;;;;;48.47;18.43;;;5.20;99.90;;;;;;5075235;28;20652;-65
2021/12/12 10:26:27;;;;;;;105.87;19.17;;;5.20;99.90;;;;;;5074650;28;20200;-65
2021/12/12 10:28:58;;;;;;;97.17;17.07;;;5.20;99.90;;;;;;5074214;28;20193;-65
2021/12/12 10:31:31;;;;;;;119.67;17.77;;;5.10;99.90;;;;;;5074413;28;20212;-65
2021/12/12 10:34:01;;;;;;;139.13;19.00;;;5.00;99.90;;;;;;5074994;28;20683;-65
2021/12/12 10:36:33;;;;;;;94.73;18.10;;;5.00;99.90;;;;;;5074593;28;20434;-65
2021/12/12 10:39:05;;;;;;;136.07;18.13;;;4.90;99.90;;;;;;5074738;28;20642;-68
2021/12/12 10:41:38;;;;;;;182.17;20.10;;;4.90;99.90;;;;;;5074596;28;20189;-67
2021/12/12 10:44:10;;;;;;;154.93;20.90;;;4.90;99.90;;;;;;5074999;28;20520;-66
2021/12/12 10:46:50;;;;;;;98.93;18.63;;;4.80;99.90;;;;;;5074983;28;20229;-66
2021/12/12 10:49:23;;;;;;;100.10;17.43;;;4.80;99.90;;;;;;5074348;28;20228;-66
2021/12/12 10:51:57;;;;;;;108.43;19.17;;;4.80;99.90;;;;;;5074204;28;20278;-65
2021/12/12 10:54:29;;;;;;;84.47;18.10;;;4.80;99.90;;;;;;5074517;28;20537;-65
2021/12/12 10:57:02;;;;;;;125.63;20.23;;;4.80;99.90;;;;;;5074233;28;20192;-65
2021/12/12 10:59:32;;;;;;;96.20;21.63;;;4.80;99.90;;;;;;5074554;28;20251;-65
2021/12/12 11:02:04;;;;;;;91.30;22.30;;;4.80;99.90;;;;;;5074424;28;20322;-63
2021/12/12 11:04:40;;;;;;;104.67;22.80;;;4.80;99.90;;;;;;5074431;28;20193;-63
2021/12/12 11:07:11;;;;;;;57.33;20.27;;;4.80;99.90;;;;;;5074245;28;20257;-61
2021/12/12 11:09:43;;;;;;;61.00;18.07;;;4.80;99.90;;;;;;5074019;28;20212;-62
2021/12/12 11:12:17;;;;;;;64.20;18.60;;;4.80;99.90;;;;;;5074303;28;20529;-63
2021/12/12 11:14:53;;;;;;;62.07;20.07;;;4.70;99.90;;;;;;5074097;28;20554;-64
2021/12/12 11:17:27;;;;;;;69.33;20.70;;;4.80;99.90;;;;;;5073539;28;20581;-63
2021/12/12 11:19:58;;;;;;;105.90;22.23;;;4.80;99.90;;;;;;5073302;28;20186;-63
2021/12/12 11:22:30;;;;;;;79.77;19.60;;;4.80;99.90;;;;;;5073060;28;20193;-62
2021/12/12 11:25:03;;;;;;;74.63;19.20;;;4.70;99.90;;;;;;5073538;28;20973;-62
2021/12/12 11:27:34;;;;;;;113.73;21.87;;;4.60;99.90;;;;;;5073264;28;20689;-62
2021/12/12 11:30:06;;;;;;;76.87;21.67;;;4.60;99.90;;;;;;5073457;28;20258;-63
2021/12/12 11:32:35;;;;;;;86.60;20.80;;;4.60;99.90;;;;;;5071855;28;20216;-61
2021/12/12 11:35:05;;;;;;;154.60;27.00;;;4.50;99.90;;;;;;5072047;28;20228;-62
2021/12/12 11:37:37;;;;;;;142.03;26.33;;;4.50;99.90;;;;;;5072532;28;20201;-62
2021/12/12 11:40:07;;;;;;;137.17;25.43;;;4.50;99.90;;;;;;5069936;28;20213;-65
2021/12/12 11:42:42;;;;;;;169.83;26.57;;;4.50;99.90;;;;;;5072015;28;20617;-63
2021/12/12 11:45:12;;;;;;;118.57;23.40;;;4.40;99.90;;;;;;5070246;28;20196;-62
2021/12/12 11:47:58;;;;;;;190.90;28.23;;;4.40;99.90;;;;;;5071456;28;20637;-62
2021/12/12 11:50:31;;;;;;;195.97;31.67;;;4.40;99.90;;;;;;5070394;28;20217;-62
2021/12/12 11:53:02;;;;;;;92.63;25.03;;;4.40;99.90;;;;;;5073321;28;20228;-62
2021/12/12 11:55:37;;;;;;;86.57;22.23;;;4.40;99.90;;;;;;5072137;28;20879;-63
2021/12/12 11:58:19;;;;;;;149.67;26.20;;;4.40;99.90;;;;;;5070663;28;20189;-64
2021/12/12 12:00:50;;;;;;;76.33;22.30;;;4.30;99.90;;;;;;5070521;28;20744;-62
2021/12/12 12:03:29;;;;;;;173.90;29.47;;;4.20;99.90;;;;;;5071588;28;20189;-63
2021/12/12 12:06:10;;;;;;;190.50;29.43;;;4.20;99.90;;;;;;5069305;28;20227;-64
2021/12/12 12:08:57;;;;;;;140.90;25.03;;;4.10;99.90;;;;;;5069921;28;20262;-63
2021/12/12 12:11:39;;;;;;;210.37;29.50;;;4.10;99.90;;;;;;5073044;28;20215;-63
2021/12/12 12:14:10;;;;;;;218.13;29.77;;;4.00;99.90;;;;;;5073316;28;20652;-62
2021/12/12 12:16:51;;;;;;;177.33;28.30;;;4.00;99.90;;;;;;5072856;28;20637;-64
2021/12/12 12:19:32;;;;;;;121.97;26.13;;;4.00;99.90;;;;;;5072477;28;20233;-62
2021/12/12 12:22:12;;;;;;;187.50;29.17;;;4.00;99.90;;;;;;5072848;28;20558;-64
2021/12/12 12:24:56;;;;;;;120.93;23.80;;;4.00;99.90;;;;;;5072482;28;20224;-63
2021/12/12 12:27:30;;;;;;;106.10;22.53;;;3.90;99.90;;;;;;5072955;28;20228;-61
2021/12/12 12:30:34;;;;;;;149.90;27.67;;;3.90;99.90;;;;;;5071959;28;20188;-64
2021/12/12 12:33:39;;;;;;;75.67;21.20;;;3.90;99.90;;;;;;5072396;28;20204;-64
2021/12/12 12:36:48;;;;;;;117.77;24.53;;;3.90;99.90;;;;;;5072773;28;20200;-64
2021/12/12 12:39:48;;;;;;;74.17;21.23;;;3.80;99.90;;;;;;5072749;28;20204;-66
2021/12/12 12:42:52;;;;;;;53.83;20.80;;;3.80;99.90;;;;;;5071496;28;20212;-62
2021/12/12 12:46:14;;;;;;;53.37;20.53;;;3.80;99.90;;;;;;5065431;28;20722;-62
2021/12/12 12:49:19;;;;;;;71.80;23.07;;;3.80;99.90;;;;;;5071765;28;20200;-63
2021/12/12 12:52:09;;;;;;;82.07;23.27;;;3.80;99.90;;;;;;5071908;28;20240;-63
2021/12/12 12:54:42;;;;;;;67.33;22.83;;;3.70;99.90;;;;;;5038812;28;20205;-63
2021/12/12 12:57:21;;;;;;;58.60;22.03;;;3.60;99.90;;;;;;5072478;28;20192;-63
2021/12/12 13:00:06;;;;;;;59.87;23.03;;;3.60;99.90;;;;;;5072339;28;20251;-63
2021/12/12 13:03:03;;;;;;;86.77;25.23;;;3.60;99.90;;;;;;5052232;28;20594;-65
2021/12/12 13:06:03;;;;;;;51.93;20.97;;;3.50;99.90;;;;;;5041408;28;20201;-63
2021/12/12 13:09:03;;;;;;;84.43;23.83;;;3.50;99.90;;;;;;5052312;28;20212;-62
2021/12/12 13:11:37;;;;;;;68.13;20.53;;;3.50;99.90;;;;;;5025865;28;20232;-64
2021/12/12 13:14:18;;;;;;;108.57;24.77;;;3.60;99.90;;;;;;5064963;28;20207;-62
2021/12/12 13:16:49;;;;;;;72.77;22.77;;;3.50;99.90;;;;;;5070910;28;20200;-64